createdAt,value
2019-03-15T00:01:07.387Z,2.90
2019-03-15T00:03:38.167Z,1.90
2019-03-15T00:06:10.021Z,2.03
2019-03-15T00:08:40.761Z,2.10
2019-03-15T00:11:11.591Z,2.10
2019-03-15T00:13:43.689Z,2.27
2019-03-15T00:16:14.511Z,2.07
2019-03-15T00:18:45.401Z,2.03
2019-03-15T00:21:16.323Z,2.50
2019-03-15T00:23:47.174Z,2.33
2019-03-15T00:26:17.991Z,2.03
2019-03-15T00:28:48.392Z,1.77
2019-03-15T00:31:19.301Z,2.10
2019-03-15T00:33:50.888Z,1.93
2019-03-15T00:36:21.643Z,2.03
2019-03-15T00:38:53.964Z,2.10
2019-03-15T00:41:24.922Z,2.60
2019-03-15T00:43:55.770Z,2.20
2019-03-15T00:46:26.641Z,2.10
2019-03-15T00:48:57.439Z,2.53
2019-03-15T00:51:28.283Z,2.13
2019-03-15T00:53:59.218Z,2.17
2019-03-15T00:56:30.040Z,1.80
2019-03-15T00:59:00.786Z,2.20
2019-03-15T01:01:31.628Z,2.40
2019-03-15T01:04:02.412Z,2.10
2019-03-15T01:06:33.224Z,2.30
2019-03-15T01:09:05.370Z,2.40
2019-03-15T01:11:36.172Z,2.37
2019-03-15T01:14:07.046Z,1.90
2019-03-15T01:16:37.962Z,2.00
2019-03-15T01:19:08.713Z,2.10
2019-03-15T01:21:39.447Z,2.03
2019-03-15T01:24:10.207Z,2.60
2019-03-15T01:26:40.904Z,1.93
2019-03-15T01:29:11.744Z,2.40
2019-03-15T01:31:42.509Z,2.20
2019-03-15T01:34:12.998Z,2.37
2019-03-15T01:36:43.528Z,2.57
2019-03-15T01:39:14.375Z,2.57
2019-03-15T01:41:45.204Z,2.93
2019-03-15T01:44:15.936Z,2.40
2019-03-15T01:46:46.682Z,2.80
2019-03-15T01:49:17.522Z,2.50
2019-03-15T01:51:48.249Z,2.60
2019-03-15T01:54:19.012Z,2.70
2019-03-15T01:56:49.958Z,2.70
2019-03-15T01:59:20.866Z,2.20
2019-03-15T02:01:51.695Z,2.57
2019-03-15T02:04:22.420Z,2.80
2019-03-15T02:06:53.162Z,3.10
2019-03-15T02:09:23.892Z,2.83
2019-03-15T02:11:55.532Z,3.27
2019-03-15T02:14:27.582Z,2.60
2019-03-15T02:16:58.662Z,2.60
2019-03-15T02:19:29.483Z,2.90
2019-03-15T02:22:00.231Z,3.23
2019-03-15T02:24:30.999Z,3.10
2019-03-15T02:27:01.798Z,2.70
2019-03-15T02:29:32.539Z,2.80
2019-03-15T02:32:03.301Z,2.73
2019-03-15T02:34:34.007Z,2.83
2019-03-15T02:37:04.831Z,3.10
2019-03-15T02:39:35.785Z,2.43
2019-03-15T02:42:06.257Z,2.90
2019-03-15T02:44:37.211Z,2.63
2019-03-15T02:47:08.207Z,2.77
2019-03-15T02:49:39.033Z,2.60
2019-03-15T02:52:09.770Z,2.60
2019-03-15T02:54:40.702Z,2.80
2019-03-15T02:57:11.545Z,2.67
2019-03-15T02:59:42.265Z,2.70
2019-03-15T03:02:13.012Z,2.40
2019-03-15T03:04:43.465Z,2.40
2019-03-15T03:07:14.269Z,2.93
2019-03-15T03:09:46.547Z,2.87
2019-03-15T03:12:17.606Z,2.60
2019-03-15T03:14:48.642Z,2.60
2019-03-15T03:17:19.461Z,2.57
2019-03-15T03:19:50.382Z,2.40
2019-03-15T03:22:22.289Z,2.50
2019-03-15T03:24:52.991Z,2.40
2019-03-15T03:27:24.416Z,2.50
2019-03-15T03:29:56.586Z,2.37
2019-03-15T03:32:26.972Z,2.50
2019-03-15T03:34:57.428Z,2.13
2019-03-15T03:37:28.203Z,2.57
2019-03-15T03:40:01.340Z,2.50
2019-03-15T03:42:33.151Z,2.97
2019-03-15T03:45:04.585Z,2.10
2019-03-15T03:47:35.337Z,2.20
2019-03-15T03:50:10.576Z,2.40
2019-03-15T03:52:41.986Z,2.80
2019-03-15T03:55:13.087Z,2.60
2019-03-15T03:57:43.908Z,2.70
2019-03-15T04:00:15.757Z,4.67
2019-03-15T04:02:46.593Z,3.60
2019-03-15T04:05:17.461Z,5.23
2019-03-15T04:07:48.399Z,3.50
2019-03-15T04:10:19.235Z,2.83
2019-03-15T04:12:50.038Z,2.47
2019-03-15T04:15:20.771Z,2.70
2019-03-15T04:17:51.508Z,3.00
2019-03-15T04:20:22.228Z,2.30
2019-03-15T04:22:55.427Z,3.10
2019-03-15T04:25:25.457Z,3.30
2019-03-15T04:27:55.949Z,2.50
2019-03-15T04:30:26.791Z,2.50
2019-03-15T04:32:57.549Z,2.30
2019-03-15T04:35:28.313Z,2.73
2019-03-15T04:37:59.032Z,2.60
2019-03-15T04:40:29.859Z,2.87
2019-03-15T04:43:00.658Z,2.43
2019-03-15T04:45:31.427Z,2.50
2019-03-15T04:48:02.392Z,2.70
2019-03-15T04:50:33.106Z,2.50
2019-03-15T04:53:03.843Z,2.50
2019-03-15T04:55:34.608Z,2.20
2019-03-15T04:58:05.439Z,2.53
2019-03-15T05:00:36.273Z,3.10
2019-03-15T05:03:07.391Z,2.43
2019-03-15T05:05:38.048Z,2.47
2019-03-15T05:08:11.299Z,2.33
2019-03-15T05:10:41.335Z,2.20
2019-03-15T05:13:11.719Z,2.10
2019-03-15T05:15:42.537Z,2.47
2019-03-15T05:18:13.394Z,2.20
2019-03-15T05:20:44.058Z,2.20
2019-03-15T05:23:14.799Z,2.20
2019-03-15T05:25:45.553Z,2.40
2019-03-15T05:28:15.981Z,2.00
2019-03-15T05:30:46.817Z,2.40
2019-03-15T05:33:17.310Z,2.50
2019-03-15T05:35:48.079Z,2.13
2019-03-15T05:38:21.522Z,2.50
2019-03-15T05:40:53.733Z,2.40
2019-03-15T05:43:24.469Z,3.00
2019-03-15T05:45:55.305Z,2.47
2019-03-15T05:48:26.152Z,2.93
2019-03-15T05:50:56.884Z,2.77
2019-03-15T05:53:27.722Z,3.00
2019-03-15T05:55:58.683Z,3.57
2019-03-15T05:58:29.821Z,3.37
2019-03-15T06:01:01.885Z,3.83
2019-03-15T06:03:32.697Z,3.03
2019-03-15T06:06:03.420Z,2.67
2019-03-15T06:08:34.255Z,3.63
2019-03-15T06:11:05.018Z,2.83
2019-03-15T06:13:35.847Z,3.63
2019-03-15T06:16:06.670Z,3.53
2019-03-15T06:18:37.126Z,3.60
2019-03-15T06:21:07.513Z,3.17
2019-03-15T06:23:38.375Z,2.83
2019-03-15T06:26:10.244Z,3.73
2019-03-15T06:28:41.113Z,3.20
2019-03-15T06:31:11.891Z,3.90
2019-03-15T06:33:42.788Z,3.70
2019-03-15T06:36:13.683Z,3.80
2019-03-15T06:38:44.434Z,4.23
2019-03-15T06:41:15.259Z,4.17
2019-03-15T06:43:46.022Z,4.23
2019-03-15T06:46:18.718Z,3.50
2019-03-15T06:48:49.584Z,3.50
2019-03-15T06:51:20.453Z,3.17
2019-03-15T06:53:51.288Z,3.13
2019-03-15T06:56:22.118Z,3.70
2019-03-15T06:58:52.926Z,3.50
2019-03-15T07:01:24.317Z,3.37
2019-03-15T07:03:55.244Z,3.80
2019-03-15T07:06:26.086Z,3.27
2019-03-15T07:08:57.858Z,3.53
2019-03-15T07:11:30.216Z,4.17
2019-03-15T07:14:01.149Z,4.00
2019-03-15T07:16:32.006Z,3.53
2019-03-15T07:19:03.125Z,3.37
2019-03-15T07:21:36.826Z,3.70
2019-03-15T07:24:07.296Z,3.43
2019-03-15T07:26:43.505Z,3.40
2019-03-15T07:29:10.650Z,3.60
2019-03-15T07:31:41.693Z,4.10
2019-03-15T07:34:15.854Z,3.43
2019-03-15T07:36:48.115Z,3.90
2019-03-15T07:39:18.979Z,3.43
2019-03-15T07:41:49.946Z,4.23
2019-03-15T07:44:20.543Z,3.23
2019-03-15T07:46:51.444Z,3.00
2019-03-15T07:49:22.294Z,3.20
2019-03-15T07:51:53.119Z,3.60
2019-03-15T07:54:23.854Z,3.27
2019-03-15T07:56:54.620Z,3.10
2019-03-15T07:59:27.810Z,3.20
2019-03-15T08:01:57.923Z,3.07
2019-03-15T08:04:29.245Z,3.27
2019-03-15T08:06:59.992Z,3.00
2019-03-15T08:09:30.811Z,3.37
2019-03-15T08:12:01.699Z,3.33
2019-03-15T08:14:32.521Z,2.87
2019-03-15T08:17:03.394Z,3.33
2019-03-15T08:19:33.858Z,2.70
2019-03-15T08:22:06.169Z,3.20
2019-03-15T08:24:37.094Z,2.83
2019-03-15T08:27:07.897Z,3.13
2019-03-15T08:29:38.632Z,3.67
2019-03-15T08:32:09.570Z,3.67
2019-03-15T08:34:40.493Z,3.40
2019-03-15T08:37:11.271Z,3.30
2019-03-15T08:39:41.896Z,3.47
2019-03-15T08:42:12.810Z,3.10
2019-03-15T08:44:43.660Z,3.40
2019-03-15T08:47:14.496Z,3.70
2019-03-15T08:49:45.339Z,3.50
2019-03-15T08:52:16.282Z,3.33
2019-03-15T08:54:47.270Z,3.20
2019-03-15T08:57:18.053Z,2.97
2019-03-15T08:59:57.051Z,3.20
2019-03-15T09:02:21.485Z,3.50
2019-03-15T09:04:52.193Z,3.30
2019-03-15T09:07:23.030Z,3.80
2019-03-15T09:09:53.861Z,3.53
2019-03-15T09:12:24.622Z,3.67
2019-03-15T09:14:55.566Z,3.53
2019-03-15T09:17:26.496Z,3.00
2019-03-15T09:19:57.343Z,3.20
2019-03-15T09:22:28.162Z,3.60
2019-03-15T09:24:59.082Z,3.90
2019-03-15T09:27:29.943Z,4.13
2019-03-15T09:30:00.675Z,4.30
2019-03-15T09:32:31.510Z,3.90
2019-03-15T09:35:02.237Z,3.97
2019-03-15T09:37:32.827Z,4.63
2019-03-15T09:40:04.951Z,4.30
2019-03-15T09:42:35.837Z,4.53
2019-03-15T09:45:09.888Z,4.83
2019-03-15T09:47:40.927Z,4.60
2019-03-15T09:50:26.606Z,4.80
2019-03-15T09:52:48.346Z,4.70
2019-03-15T09:55:31.831Z,4.67
2019-03-15T09:57:51.780Z,5.37
2019-03-15T10:00:22.530Z,4.33
2019-03-15T10:02:55.984Z,4.67
2019-03-15T10:05:26.042Z,4.80
2019-03-15T10:07:56.827Z,4.73
2019-03-15T10:10:30.394Z,4.30
2019-03-15T10:13:06.212Z,4.90
2019-03-15T10:15:36.369Z,4.63
2019-03-15T10:18:07.140Z,4.37
2019-03-15T10:20:37.870Z,4.83
2019-03-15T10:23:08.237Z,4.47
2019-03-15T10:25:46.891Z,4.67
2019-03-15T10:28:11.401Z,4.30
2019-03-15T10:30:42.139Z,4.53
2019-03-15T10:33:12.512Z,3.93
2019-03-15T10:35:43.419Z,4.20
2019-03-15T10:38:16.628Z,4.43
2019-03-15T10:40:47.339Z,4.60
2019-03-15T10:43:18.158Z,3.73
2019-03-15T10:45:48.651Z,3.87
2019-03-15T10:48:25.164Z,3.77
2019-03-15T10:50:53.975Z,4.03
2019-03-15T10:53:28.570Z,3.90
2019-03-15T10:56:00.628Z,3.80
2019-03-15T10:58:31.706Z,3.63
2019-03-15T11:01:04.145Z,4.03
2019-03-15T11:03:34.895Z,3.83
2019-03-15T11:06:05.935Z,4.27
2019-03-15T11:08:36.670Z,3.80
2019-03-15T11:11:14.601Z,4.20
2019-03-15T11:13:56.322Z,3.93
2019-03-15T11:16:27.205Z,4.60
2019-03-15T11:18:58.219Z,3.97
2019-03-15T11:21:29.015Z,3.70
2019-03-15T11:23:59.811Z,4.50
2019-03-15T11:26:30.583Z,3.90
2019-03-15T11:29:01.494Z,3.73
2019-03-15T11:31:32.227Z,3.90
2019-03-15T11:34:02.618Z,4.00
2019-03-15T11:36:33.390Z,4.53
2019-03-15T11:39:05.744Z,3.97
2019-03-15T11:41:37.106Z,3.80
2019-03-15T11:44:10.566Z,3.80
2019-03-15T11:46:40.407Z,4.10
2019-03-15T11:49:11.138Z,3.53
2019-03-15T11:51:42.675Z,4.03
2019-03-15T11:54:13.525Z,4.63
2019-03-15T11:56:44.372Z,3.90
2019-03-15T11:59:15.114Z,4.17
2019-03-15T12:01:45.993Z,4.43
2019-03-15T12:04:17.025Z,4.23
2019-03-15T12:06:47.846Z,4.97
2019-03-15T12:09:18.674Z,4.90
2019-03-15T12:11:49.505Z,4.47
2019-03-15T12:14:20.363Z,4.67
2019-03-15T12:16:51.164Z,4.73
2019-03-15T12:19:21.917Z,4.40
2019-03-15T12:22:05.289Z,4.67
2019-03-15T12:24:24.819Z,4.90
2019-03-15T12:26:55.526Z,4.80
2019-03-15T12:29:26.275Z,4.40
2019-03-15T12:31:57.026Z,4.33
2019-03-15T12:34:27.486Z,4.10
2019-03-15T12:36:58.387Z,4.60
2019-03-15T12:39:29.321Z,4.27
2019-03-15T12:42:00.147Z,4.17
2019-03-15T12:44:30.998Z,5.60
2019-03-15T12:47:01.815Z,5.60
2019-03-15T12:49:32.571Z,5.33
2019-03-15T12:52:03.404Z,5.43
2019-03-15T12:54:34.341Z,5.03
2019-03-15T12:57:06.351Z,5.00
2019-03-15T12:59:37.180Z,5.40
2019-03-15T13:02:08.083Z,5.23
2019-03-15T13:04:38.961Z,4.60
2019-03-15T13:07:11.394Z,4.90
2019-03-15T13:09:41.922Z,4.83
2019-03-15T13:12:14.344Z,4.70
2019-03-15T13:14:45.161Z,4.57
2019-03-15T13:17:16.069Z,4.53
2019-03-15T13:19:54.989Z,5.80
2019-03-15T13:22:19.277Z,4.80
2019-03-15T13:24:50.026Z,4.90
2019-03-15T13:27:20.759Z,5.13
2019-03-15T13:29:54.257Z,5.13
2019-03-15T13:32:24.979Z,4.87
2019-03-15T13:34:55.727Z,4.23
2019-03-15T13:37:26.459Z,4.47
2019-03-15T13:39:56.977Z,3.80
2019-03-15T13:42:27.700Z,3.63
2019-03-15T13:44:58.562Z,3.83
2019-03-15T13:47:29.374Z,3.40
2019-03-15T13:50:00.123Z,3.27
2019-03-15T13:52:30.542Z,3.43
2019-03-15T13:55:00.949Z,3.53
2019-03-15T13:57:31.737Z,7.33
2019-03-15T14:00:02.561Z,4.83
2019-03-15T14:02:33.389Z,3.57
2019-03-15T14:05:04.961Z,3.80
2019-03-15T14:07:35.457Z,3.63
2019-03-15T14:10:14.837Z,4.03
2019-03-15T14:12:45.434Z,3.87
2019-03-15T14:15:20.867Z,3.77
2019-03-15T14:17:51.608Z,4.03
2019-03-15T14:20:22.455Z,4.57
2019-03-15T14:22:53.275Z,4.20
2019-03-15T14:25:28.779Z,4.70
2019-03-15T14:27:59.272Z,5.13
2019-03-15T14:30:30.011Z,4.40
2019-03-15T14:33:00.882Z,4.80
2019-03-15T14:35:31.683Z,5.00
2019-03-15T14:38:02.585Z,4.80
2019-03-15T14:40:33.563Z,4.70
2019-03-15T14:43:04.426Z,5.47
2019-03-15T14:45:35.911Z,4.83
2019-03-15T14:48:06.682Z,4.63
2019-03-15T14:50:37.558Z,6.50
2019-03-15T14:53:07.985Z,6.70
2019-03-15T14:55:38.763Z,4.83
2019-03-15T14:58:09.662Z,4.70
2019-03-15T15:00:41.970Z,4.93
2019-03-15T15:03:12.721Z,4.27
2019-03-15T15:05:47.278Z,5.00
2019-03-15T15:08:17.537Z,4.40
2019-03-15T15:10:48.306Z,4.57
2019-03-15T15:13:19.335Z,4.10
2019-03-15T15:15:50.098Z,4.20
2019-03-15T15:18:20.882Z,3.50
2019-03-15T15:20:52.185Z,4.00
2019-03-15T15:23:23.107Z,4.80
2019-03-15T15:25:53.803Z,3.83
2019-03-15T15:28:24.720Z,4.63
2019-03-15T15:30:55.609Z,4.17
2019-03-15T15:33:26.440Z,3.57
2019-03-15T15:35:57.184Z,4.00
2019-03-15T15:38:28.017Z,3.70
2019-03-15T15:40:58.751Z,3.50
2019-03-15T15:43:30.515Z,3.60
2019-03-15T15:46:01.361Z,3.80
2019-03-15T15:48:32.299Z,3.70
2019-03-15T15:51:03.064Z,3.60
2019-03-15T15:53:33.951Z,3.80
2019-03-15T15:56:07.278Z,3.23
2019-03-15T15:58:37.690Z,3.60
2019-03-15T16:01:08.383Z,3.80
2019-03-15T16:03:39.148Z,2.90
2019-03-15T16:06:09.892Z,3.63
2019-03-15T16:08:40.615Z,2.90
2019-03-15T16:11:11.006Z,3.70
2019-03-15T16:13:41.765Z,3.40
2019-03-15T16:16:12.503Z,2.70
2019-03-15T16:18:43.511Z,3.13
2019-03-15T16:21:14.491Z,3.27
2019-03-15T16:23:45.342Z,3.63
2019-03-15T16:26:16.324Z,3.17
2019-03-15T16:28:46.795Z,3.80
2019-03-15T16:31:17.536Z,3.60
2019-03-15T16:33:48.152Z,4.60
2019-03-15T16:36:18.890Z,4.67
2019-03-15T16:38:49.933Z,17.27
2019-03-15T16:41:20.396Z,4.83
2019-03-15T16:43:54.365Z,3.23
2019-03-15T16:46:25.090Z,5.73
2019-03-15T16:48:55.837Z,4.90
2019-03-15T16:51:26.573Z,4.77
2019-03-15T16:53:57.514Z,5.67
2019-03-15T16:56:28.358Z,4.90
2019-03-15T16:58:59.190Z,4.50
2019-03-15T17:01:29.595Z,4.60
2019-03-15T17:04:03.529Z,4.23
2019-03-15T17:06:34.379Z,4.30
2019-03-15T17:09:09.487Z,4.77
2019-03-15T17:11:40.230Z,4.50
2019-03-15T17:14:11.084Z,4.30
2019-03-15T17:16:42.106Z,4.37
2019-03-15T17:19:12.828Z,4.27
2019-03-15T17:21:46.746Z,3.87
2019-03-15T17:24:19.015Z,3.40
2019-03-15T17:26:51.501Z,3.50
2019-03-15T17:29:22.459Z,3.17
2019-03-15T17:31:53.303Z,3.20
2019-03-15T17:34:24.253Z,2.53
2019-03-15T17:37:06.052Z,3.23
2019-03-15T17:39:27.879Z,2.50
2019-03-15T17:42:01.654Z,10.83
2019-03-15T17:44:32.675Z,3.73
2019-03-15T17:47:03.470Z,2.50
2019-03-15T17:49:34.369Z,2.87
2019-03-15T17:52:05.280Z,2.00
2019-03-15T17:54:36.174Z,2.50
2019-03-15T17:57:07.187Z,2.50
2019-03-15T17:59:38.096Z,2.20
2019-03-15T18:02:08.869Z,1.90
2019-03-15T18:04:39.672Z,1.80
2019-03-15T18:07:14.449Z,1.77
2019-03-15T18:09:45.140Z,1.83
2019-03-15T18:12:15.993Z,2.10
2019-03-15T18:14:46.832Z,2.07
2019-03-15T18:17:17.765Z,2.20
2019-03-15T18:19:48.497Z,1.90
2019-03-15T18:22:19.005Z,1.80
2019-03-15T18:24:49.690Z,1.83
2019-03-15T18:27:20.249Z,2.53
2019-03-15T18:29:51.130Z,2.07
2019-03-15T18:32:22.063Z,2.30
2019-03-15T18:34:52.916Z,1.87
2019-03-15T18:37:23.422Z,2.30
2019-03-15T18:39:54.440Z,4.10
2019-03-15T18:42:25.174Z,2.43
2019-03-15T18:44:56.064Z,2.10
2019-03-15T18:47:26.859Z,2.70
2019-03-15T18:49:57.699Z,2.50
2019-03-15T18:52:28.448Z,2.17
2019-03-15T18:54:59.264Z,2.30
2019-03-15T18:57:30.123Z,3.03
2019-03-15T19:00:01.000Z,1.60
2019-03-15T19:02:31.413Z,1.83
2019-03-15T19:05:02.302Z,1.90
2019-03-15T19:07:32.912Z,2.00
2019-03-15T19:10:04.856Z,2.03
2019-03-15T19:12:35.734Z,1.70
2019-03-15T19:15:09.553Z,1.90
2019-03-15T19:17:40.378Z,1.80
2019-03-15T19:20:13.463Z,1.90
2019-03-15T19:22:44.708Z,1.60
2019-03-15T19:25:16.361Z,1.33
2019-03-15T19:28:08.054Z,1.67
2019-03-15T19:30:50.580Z,2.00
2019-03-15T19:33:59.898Z,1.70
2019-03-15T19:36:19.573Z,1.80
2019-03-15T19:38:50.641Z,1.33
2019-03-15T19:41:23.249Z,1.33
2019-03-15T19:43:54.202Z,1.50
2019-03-15T19:46:25.045Z,1.70
2019-03-15T19:48:55.925Z,1.63
2019-03-15T19:51:26.765Z,1.20
2019-03-15T19:53:57.293Z,1.57
2019-03-15T19:56:28.517Z,1.70
2019-03-15T19:58:59.706Z,1.53
2019-03-15T20:01:30.189Z,1.63
2019-03-15T20:04:01.088Z,1.40
2019-03-15T20:06:31.912Z,1.30
2019-03-15T20:09:02.925Z,2.20
2019-03-15T20:11:33.517Z,2.10
2019-03-15T20:14:05.859Z,1.83
2019-03-15T20:16:36.757Z,1.90
2019-03-15T20:19:07.277Z,1.87
2019-03-15T20:21:38.059Z,1.87
2019-03-15T20:24:09.022Z,1.80
2019-03-15T20:26:41.487Z,1.50
2019-03-15T20:29:12.341Z,1.97
2019-03-15T20:31:46.034Z,1.90
2019-03-15T20:34:16.428Z,1.37
2019-03-15T20:36:47.395Z,1.90
2019-03-15T20:39:18.295Z,1.77
2019-03-15T20:41:49.170Z,2.00
2019-03-15T20:44:28.535Z,2.10
2019-03-15T20:46:52.503Z,2.00
2019-03-15T20:49:23.444Z,1.77
2019-03-15T20:51:54.670Z,2.03
2019-03-15T20:54:25.499Z,1.70
2019-03-15T20:56:56.223Z,1.60
2019-03-15T20:59:27.094Z,2.40
2019-03-15T21:01:59.447Z,2.00
2019-03-15T21:04:30.129Z,2.07
2019-03-15T21:07:01.314Z,2.13
2019-03-15T21:09:32.287Z,1.83
2019-03-15T21:12:03.204Z,2.20
2019-03-15T21:14:39.331Z,1.63
2019-03-15T21:17:10.210Z,2.97
2019-03-15T21:19:40.939Z,1.83
2019-03-15T21:22:13.299Z,2.17
2019-03-15T21:24:43.779Z,2.40
2019-03-15T21:27:14.483Z,1.93
2019-03-15T21:29:45.492Z,1.97
2019-03-15T21:32:16.522Z,2.20
2019-03-15T21:34:49.073Z,2.27
2019-03-15T21:37:22.932Z,2.33
2019-03-15T21:39:53.536Z,2.37
2019-03-15T21:42:24.296Z,2.60
2019-03-15T21:44:55.033Z,2.53
2019-03-15T21:47:25.850Z,1.77
2019-03-15T21:49:56.655Z,2.40
2019-03-15T21:52:27.519Z,2.37
2019-03-15T21:54:58.290Z,2.10
2019-03-15T21:57:29.006Z,2.20
2019-03-15T21:59:59.457Z,2.20
2019-03-15T22:02:30.005Z,2.50
2019-03-15T22:05:00.451Z,2.83
2019-03-15T22:07:31.464Z,2.77
2019-03-15T22:10:02.261Z,2.93
2019-03-15T22:12:33.175Z,2.67
2019-03-15T22:15:07.271Z,2.43
2019-03-15T22:17:37.404Z,2.20
2019-03-15T22:20:17.920Z,2.47
2019-03-15T22:22:48.936Z,2.17
2019-03-15T22:25:22.480Z,2.23
2019-03-15T22:27:53.289Z,2.70
2019-03-15T22:30:24.046Z,1.97
2019-03-15T22:32:54.864Z,2.53
2019-03-15T22:35:25.721Z,2.27
2019-03-15T22:37:56.657Z,2.20
2019-03-15T22:40:27.403Z,2.70
2019-03-15T22:42:58.314Z,2.43
2019-03-15T22:45:33.394Z,1.90
2019-03-15T22:48:06.266Z,2.03
2019-03-15T22:50:37.171Z,2.00
2019-03-15T22:53:07.736Z,2.07
2019-03-15T22:55:39.664Z,2.60
2019-03-15T22:58:10.642Z,3.20
2019-03-15T23:00:41.755Z,1.97
2019-03-15T23:03:13.017Z,2.13
2019-03-15T23:05:43.830Z,2.17
2019-03-15T23:08:14.718Z,2.30
2019-03-15T23:10:47.386Z,2.40
2019-03-15T23:13:18.184Z,2.10
2019-03-15T23:15:49.410Z,2.50
2019-03-15T23:18:23.002Z,2.20
2019-03-15T23:20:56.264Z,2.20
2019-03-15T23:23:26.320Z,2.50
2019-03-15T23:25:56.761Z,1.87
2019-03-15T23:28:27.607Z,2.13
2019-03-15T23:30:58.099Z,2.50
2019-03-15T23:33:28.965Z,2.60
2019-03-15T23:35:59.924Z,2.20
2019-03-15T23:38:30.729Z,1.97
2019-03-15T23:41:01.482Z,2.07
2019-03-15T23:43:33.880Z,2.33
2019-03-15T23:46:04.670Z,2.30
2019-03-15T23:48:35.539Z,2.97
2019-03-15T23:51:05.974Z,2.40
2019-03-15T23:53:36.880Z,2.67
2019-03-15T23:56:07.930Z,2.17
2019-03-15T23:58:38.890Z,2.07
